sensor_id;sensor_type;location;lat;lon;timestamp;temperature;humidity
26053;DHT22;13826;51.186;4.450;2022-12-07T00:01:17;5.30;99.90
26053;DHT22;13826;51.186;4.450;2022-12-07T00:03:43;5.30;99.90
26053;DHT22;13826;51.186;4.450;2022-12-07T00:06:10;5.30;99.90
26053;DHT22;13826;51.186;4.450;2022-12-07T00:08:35;5.20;99.90
26053;DHT22;13826;51.186;4.450;2022-12-07T00:11:02;5.20;99.90
26053;DHT22;13826;51.186;4.450;2022-12-07T00:13:28;5.20;99.90
26053;DHT22;13826;51.186;4.450;2022-12-07T00:15:54;5.10;99.90
26053;DHT22;13826;51.186;4.450;2022-12-07T00:18:19;5.10;99.90
26053;DHT22;13826;51.186;4.450;2022-12-07T00:20:45;5.00;99.90
26053;DHT22;13826;51.186;4.450;2022-12-07T00:23:10;5.00;99.90
26053;DHT22;13826;51.186;4.450;2022-12-07T00:25:36;5.00;99.90
26053;DHT22;13826;51.186;4.450;2022-12-07T00:28:01;5.00;99.90
26053;DHT22;13826;51.186;4.450;2022-12-07T00:30:27;5.20;99.90
26053;DHT22;13826;51.186;4.450;2022-12-07T00:32:52;5.20;99.90
26053;DHT22;13826;51.186;4.450;2022-12-07T00:35:18;5.10;99.90
26053;DHT22;13826;51.186;4.450;2022-12-07T00:37:43;5.20;99.90
26053;DHT22;13826;51.186;4.450;2022-12-07T00:40:09;5.40;99.90
26053;DHT22;13826;51.186;4.450;2022-12-07T00:42:35;5.50;99.90
26053;DHT22;13826;51.186;4.450;2022-12-07T00:45:00;5.70;99.90
26053;DHT22;13826;51.186;4.450;2022-12-07T00:47:26;5.60;99.90
26053;DHT22;13826;51.186;4.450;2022-12-07T00:49:51;5.80;99.90
26053;DHT22;13826;51.186;4.450;2022-12-07T00:52:17;5.80;99.90
26053;DHT22;13826;51.186;4.450;2022-12-07T00:54:42;5.80;99.90
26053;DHT22;13826;51.186;4.450;2022-12-07T00:57:08;6.00;99.90
26053;DHT22;13826;51.186;4.450;2022-12-07T00:59:33;5.90;99.90
26053;DHT22;13826;51.186;4.450;2022-12-07T01:01:59;6.10;99.90
26053;DHT22;13826;51.186;4.450;2022-12-07T01:04:24;6.20;99.90
26053;DHT22;13826;51.186;4.450;2022-12-07T01:06:50;6.40;99.90
26053;DHT22;13826;51.186;4.450;2022-12-07T01:09:15;6.40;99.90
26053;DHT22;13826;51.186;4.450;2022-12-07T01:11:41;6.50;99.90
26053;DHT22;13826;51.186;4.450;2022-12-07T01:14:07;6.10;99.90
26053;DHT22;13826;51.186;4.450;2022-12-07T01:16:34;6.00;99.90
26053;DHT22;13826;51.186;4.450;2022-12-07T01:18:59;5.90;99.90
26053;DHT22;13826;51.186;4.450;2022-12-07T01:21:26;5.70;99.90
26053;DHT22;13826;51.186;4.450;2022-12-07T01:23:52;5.50;99.90
26053;DHT22;13826;51.186;4.450;2022-12-07T01:26:19;5.20;99.90
26053;DHT22;13826;51.186;4.450;2022-12-07T01:28:45;5.10;99.90
26053;DHT22;13826;51.186;4.450;2022-12-07T01:31:12;5.00;99.90
26053;DHT22;13826;51.186;4.450;2022-12-07T01:33:40;4.90;99.90
26053;DHT22;13826;51.186;4.450;2022-12-07T01:36:07;4.90;99.90
26053;DHT22;13826;51.186;4.450;2022-12-07T01:38:33;5.00;99.90
26053;DHT22;13826;51.186;4.450;2022-12-07T01:40:59;5.10;99.90
26053;DHT22;13826;51.186;4.450;2022-12-07T01:43:26;5.30;99.90
26053;DHT22;13826;51.186;4.450;2022-12-07T01:45:52;5.20;99.90
26053;DHT22;13826;51.186;4.450;2022-12-07T01:48:19;5.10;99.90
26053;DHT22;13826;51.186;4.450;2022-12-07T01:50:47;5.10;99.90
26053;DHT22;13826;51.186;4.450;2022-12-07T01:53:13;5.10;99.90
26053;DHT22;13826;51.186;4.450;2022-12-07T01:55:40;5.10;99.90
26053;DHT22;13826;51.186;4.450;2022-12-07T01:58:07;5.10;99.90
26053;DHT22;13826;51.186;4.450;2022-12-07T02:00:33;4.90;99.90
26053;DHT22;13826;51.186;4.450;2022-12-07T02:03:04;4.90;99.90
26053;DHT22;13826;51.186;4.450;2022-12-07T02:05:30;4.90;99.90
26053;DHT22;13826;51.186;4.450;2022-12-07T02:07:56;4.80;99.90
26053;DHT22;13826;51.186;4.450;2022-12-07T02:10:26;4.90;99.90
26053;DHT22;13826;51.186;4.450;2022-12-07T02:13:02;4.80;99.90
26053;DHT22;13826;51.186;4.450;2022-12-07T02:18:24;5.00;99.90
26053;DHT22;13826;51.186;4.450;2022-12-07T02:26:23;5.20;99.90
26053;DHT22;13826;51.186;4.450;2022-12-07T02:31:31;5.30;99.90
26053;DHT22;13826;51.186;4.450;2022-12-07T02:34:01;5.50;99.90
26053;DHT22;13826;51.186;4.450;2022-12-07T02:36:31;5.60;99.90
26053;DHT22;13826;51.186;4.450;2022-12-07T02:38:59;5.60;99.90
26053;DHT22;13826;51.186;4.450;2022-12-07T02:41:27;5.60;99.90
26053;DHT22;13826;51.186;4.450;2022-12-07T02:43:55;5.60;99.90
26053;DHT22;13826;51.186;4.450;2022-12-07T02:46:26;5.60;99.90
26053;DHT22;13826;51.186;4.450;2022-12-07T02:48:53;5.70;99.90
26053;DHT22;13826;51.186;4.450;2022-12-07T02:51:19;5.80;99.90
26053;DHT22;13826;51.186;4.450;2022-12-07T02:53:46;5.70;99.90
26053;DHT22;13826;51.186;4.450;2022-12-07T02:58:48;5.60;99.90
26053;DHT22;13826;51.186;4.450;2022-12-07T03:01:35;5.60;99.90
26053;DHT22;13826;51.186;4.450;2022-12-07T03:06:36;5.50;99.90
26053;DHT22;13826;51.186;4.450;2022-12-07T03:11:37;5.30;99.90
26053;DHT22;13826;51.186;4.450;2022-12-07T03:14:09;5.30;99.90
26053;DHT22;13826;51.186;4.450;2022-12-07T03:16:43;5.40;99.90
26053;DHT22;13826;51.186;4.450;2022-12-07T03:19:13;5.50;99.90
26053;DHT22;13826;51.186;4.450;2022-12-07T03:21:59;5.30;99.90
26053;DHT22;13826;51.186;4.450;2022-12-07T03:25:00;5.20;99.90
26053;DHT22;13826;51.186;4.450;2022-12-07T03:27:24;5.30;99.90
26053;DHT22;13826;51.186;4.450;2022-12-07T03:29:55;5.30;99.90
26053;DHT22;13826;51.186;4.450;2022-12-07T03:32:23;5.30;99.90
26053;DHT22;13826;51.186;4.450;2022-12-07T03:37:26;5.20;99.90
26053;DHT22;13826;51.186;4.450;2022-12-07T03:40:00;5.10;99.90
26053;DHT22;13826;51.186;4.450;2022-12-07T03:42:27;5.00;99.90
26053;DHT22;13826;51.186;4.450;2022-12-07T03:44:53;5.00;99.90
26053;DHT22;13826;51.186;4.450;2022-12-07T03:47:26;5.00;99.90
26053;DHT22;13826;51.186;4.450;2022-12-07T03:57:17;5.20;99.90
26053;DHT22;13826;51.186;4.450;2022-12-07T03:59:42;5.20;99.90
26053;DHT22;13826;51.186;4.450;2022-12-07T04:02:08;5.20;99.90
26053;DHT22;13826;51.186;4.450;2022-12-07T04:04:36;5.10;99.90
26053;DHT22;13826;51.186;4.450;2022-12-07T04:07:01;5.20;99.90
26053;DHT22;13826;51.186;4.450;2022-12-07T04:09:27;5.20;99.90
26053;DHT22;13826;51.186;4.450;2022-12-07T04:11:53;5.30;99.90
26053;DHT22;13826;51.186;4.450;2022-12-07T04:14:18;5.20;99.90
26053;DHT22;13826;51.186;4.450;2022-12-07T04:16:53;5.00;99.90
26053;DHT22;13826;51.186;4.450;2022-12-07T04:19:31;4.90;99.90
26053;DHT22;13826;51.186;4.450;2022-12-07T04:21:57;4.90;99.90
26053;DHT22;13826;51.186;4.450;2022-12-07T04:24:23;5.00;99.90
26053;DHT22;13826;51.186;4.450;2022-12-07T04:26:49;5.10;99.90
26053;DHT22;13826;51.186;4.450;2022-12-07T04:29:15;5.00;99.90
26053;DHT22;13826;51.186;4.450;2022-12-07T04:31:40;5.00;99.90
26053;DHT22;13826;51.186;4.450;2022-12-07T04:34:06;5.10;99.90
26053;DHT22;13826;51.186;4.450;2022-12-07T04:36:33;5.10;99.90
26053;DHT22;13826;51.186;4.450;2022-12-07T04:38:59;5.10;99.90
26053;DHT22;13826;51.186;4.450;2022-12-07T04:41:25;5.20;99.90
26053;DHT22;13826;51.186;4.450;2022-12-07T04:43:57;5.20;99.90
26053;DHT22;13826;51.186;4.450;2022-12-07T04:46:23;5.20;99.90
26053;DHT22;13826;51.186;4.450;2022-12-07T04:48:49;5.30;99.90
26053;DHT22;13826;51.186;4.450;2022-12-07T04:51:19;5.40;99.90
26053;DHT22;13826;51.186;4.450;2022-12-07T04:53:45;5.30;99.90
26053;DHT22;13826;51.186;4.450;2022-12-07T04:56:10;5.40;99.90
26053;DHT22;13826;51.186;4.450;2022-12-07T04:58:36;5.40;99.90
26053;DHT22;13826;51.186;4.450;2022-12-07T05:01:01;5.50;99.90
26053;DHT22;13826;51.186;4.450;2022-12-07T05:03:27;5.60;99.90
26053;DHT22;13826;51.186;4.450;2022-12-07T05:05:53;5.70;99.90
26053;DHT22;13826;51.186;4.450;2022-12-07T05:08:18;5.60;99.90
26053;DHT22;13826;51.186;4.450;2022-12-07T05:10:44;5.70;99.90
26053;DHT22;13826;51.186;4.450;2022-12-07T05:13:09;5.70;99.90
26053;DHT22;13826;51.186;4.450;2022-12-07T05:15:35;5.70;99.90
26053;DHT22;13826;51.186;4.450;2022-12-07T05:18:00;5.80;99.90
26053;DHT22;13826;51.186;4.450;2022-12-07T05:20:26;5.90;99.90
26053;DHT22;13826;51.186;4.450;2022-12-07T05:22:51;5.80;99.90
26053;DHT22;13826;51.186;4.450;2022-12-07T05:25:17;5.80;99.90
26053;DHT22;13826;51.186;4.450;2022-12-07T05:27:42;5.70;99.90
26053;DHT22;13826;51.186;4.450;2022-12-07T05:30:08;5.70;99.90
26053;DHT22;13826;51.186;4.450;2022-12-07T05:32:34;5.60;99.90
26053;DHT22;13826;51.186;4.450;2022-12-07T05:34:59;5.70;99.90
26053;DHT22;13826;51.186;4.450;2022-12-07T05:37:25;5.80;99.90
26053;DHT22;13826;51.186;4.450;2022-12-07T05:39:50;6.00;99.90
26053;DHT22;13826;51.186;4.450;2022-12-07T05:42:16;6.00;99.90
26053;DHT22;13826;51.186;4.450;2022-12-07T05:44:43;6.10;99.90
26053;DHT22;13826;51.186;4.450;2022-12-07T05:47:09;6.00;99.90
26053;DHT22;13826;51.186;4.450;2022-12-07T05:49:35;6.00;99.90
26053;DHT22;13826;51.186;4.450;2022-12-07T05:52:01;6.10;99.90
26053;DHT22;13826;51.186;4.450;2022-12-07T05:54:27;6.10;99.90
26053;DHT22;13826;51.186;4.450;2022-12-07T05:56:52;6.30;99.90
26053;DHT22;13826;51.186;4.450;2022-12-07T05:59:18;6.20;99.90
26053;DHT22;13826;51.186;4.450;2022-12-07T06:04:14;6.20;99.90
26053;DHT22;13826;51.186;4.450;2022-12-07T06:06:40;6.20;99.90
26053;DHT22;13826;51.186;4.450;2022-12-07T06:09:05;6.20;99.90
26053;DHT22;13826;51.186;4.450;2022-12-07T06:11:31;6.10;99.90
26053;DHT22;13826;51.186;4.450;2022-12-07T06:14:15;6.20;99.90
26053;DHT22;13826;51.186;4.450;2022-12-07T06:16:41;6.20;99.90
26053;DHT22;13826;51.186;4.450;2022-12-07T06:19:06;6.30;99.90
26053;DHT22;13826;51.186;4.450;2022-12-07T06:21:32;6.40;99.90
26053;DHT22;13826;51.186;4.450;2022-12-07T06:23:57;6.30;99.90
26053;DHT22;13826;51.186;4.450;2022-12-07T06:26:23;6.50;99.90
26053;DHT22;13826;51.186;4.450;2022-12-07T06:28:48;6.40;99.90
26053;DHT22;13826;51.186;4.450;2022-12-07T06:31:14;6.40;99.90
26053;DHT22;13826;51.186;4.450;2022-12-07T06:33:40;6.40;99.90
26053;DHT22;13826;51.186;4.450;2022-12-07T06:36:05;6.40;99.90
26053;DHT22;13826;51.186;4.450;2022-12-07T06:38:31;6.50;99.90
26053;DHT22;13826;51.186;4.450;2022-12-07T06:40:57;6.50;99.90
26053;DHT22;13826;51.186;4.450;2022-12-07T06:43:22;6.40;99.90
26053;DHT22;13826;51.186;4.450;2022-12-07T06:45:48;6.40;99.90
26053;DHT22;13826;51.186;4.450;2022-12-07T06:48:13;6.50;99.90
26053;DHT22;13826;51.186;4.450;2022-12-07T06:50:39;6.40;99.90
26053;DHT22;13826;51.186;4.450;2022-12-07T06:53:05;6.40;99.90
26053;DHT22;13826;51.186;4.450;2022-12-07T06:55:30;6.20;99.90
26053;DHT22;13826;51.186;4.450;2022-12-07T06:57:56;6.00;99.90
26053;DHT22;13826;51.186;4.450;2022-12-07T07:00:22;5.90;99.90
26053;DHT22;13826;51.186;4.450;2022-12-07T07:05:36;5.50;99.90
26053;DHT22;13826;51.186;4.450;2022-12-07T07:08:02;5.50;99.90
26053;DHT22;13826;51.186;4.450;2022-12-07T07:10:28;5.40;99.90
26053;DHT22;13826;51.186;4.450;2022-12-07T07:12:53;5.40;99.90
26053;DHT22;13826;51.186;4.450;2022-12-07T07:15:19;5.50;99.90
26053;DHT22;13826;51.186;4.450;2022-12-07T07:17:44;5.20;99.90
26053;DHT22;13826;51.186;4.450;2022-12-07T07:20:10;5.00;99.90
26053;DHT22;13826;51.186;4.450;2022-12-07T07:22:36;5.10;99.90
26053;DHT22;13826;51.186;4.450;2022-12-07T07:25:01;5.10;99.90
26053;DHT22;13826;51.186;4.450;2022-12-07T07:27:27;5.10;99.90
26053;DHT22;13826;51.186;4.450;2022-12-07T07:29:53;5.10;99.90
26053;DHT22;13826;51.186;4.450;2022-12-07T07:32:18;5.20;99.90
26053;DHT22;13826;51.186;4.450;2022-12-07T07:34:44;5.10;99.90
26053;DHT22;13826;51.186;4.450;2022-12-07T07:37:10;5.10;99.90
26053;DHT22;13826;51.186;4.450;2022-12-07T07:39:38;5.20;99.90
26053;DHT22;13826;51.186;4.450;2022-12-07T07:42:03;5.20;99.90
26053;DHT22;13826;51.186;4.450;2022-12-07T07:44:29;5.20;99.90
26053;DHT22;13826;51.186;4.450;2022-12-07T07:46:55;5.10;99.90
26053;DHT22;13826;51.186;4.450;2022-12-07T07:49:20;5.10;99.90
26053;DHT22;13826;51.186;4.450;2022-12-07T07:51:46;5.00;99.90
26053;DHT22;13826;51.186;4.450;2022-12-07T07:54:11;5.00;99.90
26053;DHT22;13826;51.186;4.450;2022-12-07T07:56:37;5.00;99.90
26053;DHT22;13826;51.186;4.450;2022-12-07T07:59:02;5.10;99.90
26053;DHT22;13826;51.186;4.450;2022-12-07T08:01:28;5.10;99.90
26053;DHT22;13826;51.186;4.450;2022-12-07T08:03:53;5.20;99.90
26053;DHT22;13826;51.186;4.450;2022-12-07T08:06:19;5.30;99.90
26053;DHT22;13826;51.186;4.450;2022-12-07T08:08:44;5.30;99.90
26053;DHT22;13826;51.186;4.450;2022-12-07T08:11:10;5.50;99.90
26053;DHT22;13826;51.186;4.450;2022-12-07T08:13:36;5.70;99.90
26053;DHT22;13826;51.186;4.450;2022-12-07T08:16:05;5.70;99.90
26053;DHT22;13826;51.186;4.450;2022-12-07T08:18:34;5.70;99.90
26053;DHT22;13826;51.186;4.450;2022-12-07T08:21:00;5.60;99.90
26053;DHT22;13826;51.186;4.450;2022-12-07T08:23:28;5.70;99.90
26053;DHT22;13826;51.186;4.450;2022-12-07T08:25:53;5.80;99.90
26053;DHT22;13826;51.186;4.450;2022-12-07T08:28:19;5.90;99.90
26053;DHT22;13826;51.186;4.450;2022-12-07T08:30:44;6.00;99.90
26053;DHT22;13826;51.186;4.450;2022-12-07T08:33:10;6.20;99.90
26053;DHT22;13826;51.186;4.450;2022-12-07T08:35:39;6.20;99.90
26053;DHT22;13826;51.186;4.450;2022-12-07T08:38:04;6.20;99.90
26053;DHT22;13826;51.186;4.450;2022-12-07T08:40:30;6.10;99.90
26053;DHT22;13826;51.186;4.450;2022-12-07T08:42:55;6.00;99.90
26053;DHT22;13826;51.186;4.450;2022-12-07T08:45:21;6.10;99.90
26053;DHT22;13826;51.186;4.450;2022-12-07T08:47:50;6.10;99.90
26053;DHT22;13826;51.186;4.450;2022-12-07T08:50:18;5.90;99.90
26053;DHT22;13826;51.186;4.450;2022-12-07T08:52:43;5.80;99.90
26053;DHT22;13826;51.186;4.450;2022-12-07T08:55:10;5.70;99.90
26053;DHT22;13826;51.186;4.450;2022-12-07T08:57:36;5.80;99.90
26053;DHT22;13826;51.186;4.450;2022-12-07T09:00:03;5.90;99.90
26053;DHT22;13826;51.186;4.450;2022-12-07T09:02:29;6.20;99.90
26053;DHT22;13826;51.186;4.450;2022-12-07T09:04:55;6.50;99.90
26053;DHT22;13826;51.186;4.450;2022-12-07T09:07:20;6.70;99.90
26053;DHT22;13826;51.186;4.450;2022-12-07T09:09:46;6.90;99.90
26053;DHT22;13826;51.186;4.450;2022-12-07T09:12:11;7.60;99.90
26053;DHT22;13826;51.186;4.450;2022-12-07T09:14:37;9.50;99.90
26053;DHT22;13826;51.186;4.450;2022-12-07T09:17:09;10.40;88.00
26053;DHT22;13826;51.186;4.450;2022-12-07T09:19:35;10.00;80.10
26053;DHT22;13826;51.186;4.450;2022-12-07T09:22:01;9.90;82.30
26053;DHT22;13826;51.186;4.450;2022-12-07T09:24:27;9.90;79.80
26053;DHT22;13826;51.186;4.450;2022-12-07T09:26:52;9.40;79.90
26053;DHT22;13826;51.186;4.450;2022-12-07T09:29:18;8.80;87.40
26053;DHT22;13826;51.186;4.450;2022-12-07T09:31:44;8.50;91.30
26053;DHT22;13826;51.186;4.450;2022-12-07T09:34:09;8.70;92.80
26053;DHT22;13826;51.186;4.450;2022-12-07T09:36:35;8.90;92.40
26053;DHT22;13826;51.186;4.450;2022-12-07T09:39:00;11.00;84.80
26053;DHT22;13826;51.186;4.450;2022-12-07T09:41:27;13.10;36.70
26053;DHT22;13826;51.186;4.450;2022-12-07T09:43:53;14.20;1.00
26053;DHT22;13826;51.186;4.450;2022-12-07T09:46:21;14.30;1.00
26053;DHT22;13826;51.186;4.450;2022-12-07T09:48:47;13.10;9.40
26053;DHT22;13826;51.186;4.450;2022-12-07T09:53:40;11.60;38.80
26053;DHT22;13826;51.186;4.450;2022-12-07T09:56:06;11.00;50.30
26053;DHT22;13826;51.186;4.450;2022-12-07T09:58:33;9.90;69.00
26053;DHT22;13826;51.186;4.450;2022-12-07T10:01:05;9.50;78.90
26053;DHT22;13826;51.186;4.450;2022-12-07T10:03:35;9.00;84.60
26053;DHT22;13826;51.186;4.450;2022-12-07T10:06:02;8.80;91.10
26053;DHT22;13826;51.186;4.450;2022-12-07T10:08:29;8.60;93.20
26053;DHT22;13826;51.186;4.450;2022-12-07T10:10:55;9.10;95.30
26053;DHT22;13826;51.186;4.450;2022-12-07T10:13:23;9.70;89.60
26053;DHT22;13826;51.186;4.450;2022-12-07T10:15:58;9.60;84.80
26053;DHT22;13826;51.186;4.450;2022-12-07T10:18:34;9.60;83.40
26053;DHT22;13826;51.186;4.450;2022-12-07T10:21:02;9.80;83.50
26053;DHT22;13826;51.186;4.450;2022-12-07T10:23:28;10.20;80.10
26053;DHT22;13826;51.186;4.450;2022-12-07T10:25:54;11.00;68.30
26053;DHT22;13826;51.186;4.450;2022-12-07T10:28:20;10.80;63.70
26053;DHT22;13826;51.186;4.450;2022-12-07T10:30:47;10.50;65.70
26053;DHT22;13826;51.186;4.450;2022-12-07T10:33:33;10.10;74.30
26053;DHT22;13826;51.186;4.450;2022-12-07T10:35:59;10.00;75.30
26053;DHT22;13826;51.186;4.450;2022-12-07T10:38:25;9.90;75.90
26053;DHT22;13826;51.186;4.450;2022-12-07T10:41:07;9.80;79.40
26053;DHT22;13826;51.186;4.450;2022-12-07T10:43:33;9.70;82.00
26053;DHT22;13826;51.186;4.450;2022-12-07T10:46:20;9.40;85.20
26053;DHT22;13826;51.186;4.450;2022-12-07T10:53:57;9.10;91.10
26053;DHT22;13826;51.186;4.450;2022-12-07T10:56:34;9.10;92.00
26053;DHT22;13826;51.186;4.450;2022-12-07T11:06:55;9.10;93.90
26053;DHT22;13826;51.186;4.450;2022-12-07T11:14:48;9.30;94.00
26053;DHT22;13826;51.186;4.450;2022-12-07T11:22:29;9.90;90.80
26053;DHT22;13826;51.186;4.450;2022-12-07T11:37:41;9.50;93.50
26053;DHT22;13826;51.186;4.450;2022-12-07T11:43:09;10.10;90.00
26053;DHT22;13826;51.186;4.450;2022-12-07T11:45:37;10.80;83.10
26053;DHT22;13826;51.186;4.450;2022-12-07T11:48:17;11.90;55.20
26053;DHT22;13826;51.186;4.450;2022-12-07T11:50:50;11.60;54.70
26053;DHT22;13826;51.186;4.450;2022-12-07T11:56:19;10.90;67.10
26053;DHT22;13826;51.186;4.450;2022-12-07T11:58:45;10.70;65.00
26053;DHT22;13826;51.186;4.450;2022-12-07T12:03:41;10.40;69.10
26053;DHT22;13826;51.186;4.450;2022-12-07T12:06:08;10.40;70.50
26053;DHT22;13826;51.186;4.450;2022-12-07T12:08:36;10.30;68.70
26053;DHT22;13826;51.186;4.450;2022-12-07T12:16:38;9.60;64.40
26053;DHT22;13826;51.186;4.450;2022-12-07T12:22:01;9.10;75.60
26053;DHT22;13826;51.186;4.450;2022-12-07T12:24:29;9.00;79.80
26053;DHT22;13826;51.186;4.450;2022-12-07T12:27:03;8.90;83.20
26053;DHT22;13826;51.186;4.450;2022-12-07T12:32:13;8.70;91.30
26053;DHT22;13826;51.186;4.450;2022-12-07T12:47:53;9.10;93.70
26053;DHT22;13826;51.186;4.450;2022-12-07T12:50:20;9.20;92.40
26053;DHT22;13826;51.186;4.450;2022-12-07T12:52:51;9.20;91.40
26053;DHT22;13826;51.186;4.450;2022-12-07T12:55:18;9.20;91.30
26053;DHT22;13826;51.186;4.450;2022-12-07T12:57:47;9.30;91.90
26053;DHT22;13826;51.186;4.450;2022-12-07T13:00:20;9.20;91.00
26053;DHT22;13826;51.186;4.450;2022-12-07T13:05:16;9.70;90.10
26053;DHT22;13826;51.186;4.450;2022-12-07T13:15:30;8.90;94.20
26053;DHT22;13826;51.186;4.450;2022-12-07T13:17:57;8.80;95.30
26053;DHT22;13826;51.186;4.450;2022-12-07T13:23:09;8.90;94.80
26053;DHT22;13826;51.186;4.450;2022-12-07T13:25:38;8.70;95.70
26053;DHT22;13826;51.186;4.450;2022-12-07T13:30:32;8.50;96.80
26053;DHT22;13826;51.186;4.450;2022-12-07T13:32:58;8.40;97.60
26053;DHT22;13826;51.186;4.450;2022-12-07T13:35:42;8.10;96.50
26053;DHT22;13826;51.186;4.450;2022-12-07T13:38:24;8.20;97.70
26053;DHT22;13826;51.186;4.450;2022-12-07T13:43:42;8.30;98.40
26053;DHT22;13826;51.186;4.450;2022-12-07T13:46:07;8.40;98.70
26053;DHT22;13826;51.186;4.450;2022-12-07T13:48:35;8.10;98.60
26053;DHT22;13826;51.186;4.450;2022-12-07T13:51:02;8.00;99.90
26053;DHT22;13826;51.186;4.450;2022-12-07T13:53:28;7.90;99.90
26053;DHT22;13826;51.186;4.450;2022-12-07T13:55:59;7.90;99.90
26053;DHT22;13826;51.186;4.450;2022-12-07T13:58:25;7.90;99.90
26053;DHT22;13826;51.186;4.450;2022-12-07T14:00:51;7.70;99.90
26053;DHT22;13826;51.186;4.450;2022-12-07T14:05:43;7.50;99.90
26053;DHT22;13826;51.186;4.450;2022-12-07T14:13:19;7.70;99.90
26053;DHT22;13826;51.186;4.450;2022-12-07T14:15:49;7.70;99.30
26053;DHT22;13826;51.186;4.450;2022-12-07T14:18:25;7.50;99.00
26053;DHT22;13826;51.186;4.450;2022-12-07T14:21:02;7.60;99.60
26053;DHT22;13826;51.186;4.450;2022-12-07T14:23:27;7.70;98.90
26053;DHT22;13826;51.186;4.450;2022-12-07T14:25:53;7.90;98.60
26053;DHT22;13826;51.186;4.450;2022-12-07T14:28:29;7.90;98.10
26053;DHT22;13826;51.186;4.450;2022-12-07T14:30:56;7.90;98.30
26053;DHT22;13826;51.186;4.450;2022-12-07T14:33:21;7.90;96.80
26053;DHT22;13826;51.186;4.450;2022-12-07T14:35:48;7.80;96.90
26053;DHT22;13826;51.186;4.450;2022-12-07T14:38:14;7.70;96.30
26053;DHT22;13826;51.186;4.450;2022-12-07T14:40:40;7.40;97.30
26053;DHT22;13826;51.186;4.450;2022-12-07T14:43:08;7.20;99.80
26053;DHT22;13826;51.186;4.450;2022-12-07T14:45:34;7.30;99.90
26053;DHT22;13826;51.186;4.450;2022-12-07T14:47:59;7.30;99.50
26053;DHT22;13826;51.186;4.450;2022-12-07T14:50:25;7.20;99.30
26053;DHT22;13826;51.186;4.450;2022-12-07T14:52:52;7.10;99.20
26053;DHT22;13826;51.186;4.450;2022-12-07T14:55:24;7.10;99.90
26053;DHT22;13826;51.186;4.450;2022-12-07T14:57:49;7.00;99.90
26053;DHT22;13826;51.186;4.450;2022-12-07T15:00:15;6.90;99.90
26053;DHT22;13826;51.186;4.450;2022-12-07T15:02:43;6.90;99.90
26053;DHT22;13826;51.186;4.450;2022-12-07T15:05:08;6.90;99.90
26053;DHT22;13826;51.186;4.450;2022-12-07T15:07:34;6.90;99.90
26053;DHT22;13826;51.186;4.450;2022-12-07T15:10:00;6.80;99.90
26053;DHT22;13826;51.186;4.450;2022-12-07T15:12:25;6.80;99.90
26053;DHT22;13826;51.186;4.450;2022-12-07T15:14:51;6.80;99.90
26053;DHT22;13826;51.186;4.450;2022-12-07T15:17:16;6.70;99.90
26053;DHT22;13826;51.186;4.450;2022-12-07T15:19:42;6.60;99.90
26053;DHT22;13826;51.186;4.450;2022-12-07T15:22:08;6.40;99.90
26053;DHT22;13826;51.186;4.450;2022-12-07T15:24:35;6.30;99.90
26053;DHT22;13826;51.186;4.450;2022-12-07T15:27:01;6.20;99.90
26053;DHT22;13826;51.186;4.450;2022-12-07T15:29:26;6.10;99.90
26053;DHT22;13826;51.186;4.450;2022-12-07T15:31:52;6.10;99.90
26053;DHT22;13826;51.186;4.450;2022-12-07T15:34:18;6.20;99.90
26053;DHT22;13826;51.186;4.450;2022-12-07T15:36:43;6.30;99.90
26053;DHT22;13826;51.186;4.450;2022-12-07T15:39:09;6.30;99.90
26053;DHT22;13826;51.186;4.450;2022-12-07T15:41:35;6.30;99.90
26053;DHT22;13826;51.186;4.450;2022-12-07T15:44:00;6.40;99.90
26053;DHT22;13826;51.186;4.450;2022-12-07T15:46:44;6.40;99.90
26053;DHT22;13826;51.186;4.450;2022-12-07T15:49:11;6.50;99.90
26053;DHT22;13826;51.186;4.450;2022-12-07T15:51:37;6.40;99.90
26053;DHT22;13826;51.186;4.450;2022-12-07T15:54:03;6.30;99.90
26053;DHT22;13826;51.186;4.450;2022-12-07T15:56:28;6.20;99.90
26053;DHT22;13826;51.186;4.450;2022-12-07T15:58:55;6.30;99.90
26053;DHT22;13826;51.186;4.450;2022-12-07T16:01:21;6.30;99.90
26053;DHT22;13826;51.186;4.450;2022-12-07T16:03:46;6.40;99.90
26053;DHT22;13826;51.186;4.450;2022-12-07T16:06:15;6.40;99.90
26053;DHT22;13826;51.186;4.450;2022-12-07T16:08:44;6.50;99.90
26053;DHT22;13826;51.186;4.450;2022-12-07T16:11:10;6.60;99.90
26053;DHT22;13826;51.186;4.450;2022-12-07T16:13:36;6.60;99.90
26053;DHT22;13826;51.186;4.450;2022-12-07T16:16:05;6.70;99.90
26053;DHT22;13826;51.186;4.450;2022-12-07T16:18:32;6.70;99.90
26053;DHT22;13826;51.186;4.450;2022-12-07T16:20:58;6.70;99.90
26053;DHT22;13826;51.186;4.450;2022-12-07T16:23:23;6.60;99.90
26053;DHT22;13826;51.186;4.450;2022-12-07T16:25:49;6.70;99.90
26053;DHT22;13826;51.186;4.450;2022-12-07T16:28:14;6.70;99.90
26053;DHT22;13826;51.186;4.450;2022-12-07T16:30:40;6.70;99.90
26053;DHT22;13826;51.186;4.450;2022-12-07T16:33:05;6.70;99.90
26053;DHT22;13826;51.186;4.450;2022-12-07T16:35:31;6.70;99.90
26053;DHT22;13826;51.186;4.450;2022-12-07T16:37:56;6.70;99.90
26053;DHT22;13826;51.186;4.450;2022-12-07T16:40:22;6.70;99.90
26053;DHT22;13826;51.186;4.450;2022-12-07T16:42:47;6.70;99.90
26053;DHT22;13826;51.186;4.450;2022-12-07T16:45:13;6.70;99.90
26053;DHT22;13826;51.186;4.450;2022-12-07T16:47:39;6.70;99.90
26053;DHT22;13826;51.186;4.450;2022-12-07T16:50:04;6.60;99.90
26053;DHT22;13826;51.186;4.450;2022-12-07T16:52:30;6.60;99.90
26053;DHT22;13826;51.186;4.450;2022-12-07T16:54:56;6.60;99.90
26053;DHT22;13826;51.186;4.450;2022-12-07T16:57:21;6.60;99.90
26053;DHT22;13826;51.186;4.450;2022-12-07T16:59:47;6.50;99.90
26053;DHT22;13826;51.186;4.450;2022-12-07T17:02:12;6.50;99.90
26053;DHT22;13826;51.186;4.450;2022-12-07T17:04:38;6.40;99.90
26053;DHT22;13826;51.186;4.450;2022-12-07T17:07:05;6.40;99.90
26053;DHT22;13826;51.186;4.450;2022-12-07T17:09:31;6.40;99.90
26053;DHT22;13826;51.186;4.450;2022-12-07T17:11:56;6.40;99.90
26053;DHT22;13826;51.186;4.450;2022-12-07T17:14:22;6.50;99.90
26053;DHT22;13826;51.186;4.450;2022-12-07T17:17:06;6.60;99.90
26053;DHT22;13826;51.186;4.450;2022-12-07T17:19:31;6.70;99.90
26053;DHT22;13826;51.186;4.450;2022-12-07T17:21:57;6.60;99.90
26053;DHT22;13826;51.186;4.450;2022-12-07T17:24:22;6.70;99.90
26053;DHT22;13826;51.186;4.450;2022-12-07T17:26:48;6.80;99.90
26053;DHT22;13826;51.186;4.450;2022-12-07T17:29:14;6.80;99.90
26053;DHT22;13826;51.186;4.450;2022-12-07T17:31:41;6.80;99.90
26053;DHT22;13826;51.186;4.450;2022-12-07T17:34:10;6.80;99.90
26053;DHT22;13826;51.186;4.450;2022-12-07T17:36:36;6.80;99.90
26053;DHT22;13826;51.186;4.450;2022-12-07T17:39:05;6.60;99.90
26053;DHT22;13826;51.186;4.450;2022-12-07T17:41:32;6.50;99.90
26053;DHT22;13826;51.186;4.450;2022-12-07T17:44:17;6.40;99.90
26053;DHT22;13826;51.186;4.450;2022-12-07T17:46:43;6.20;99.90
26053;DHT22;13826;51.186;4.450;2022-12-07T17:49:09;6.20;99.90
26053;DHT22;13826;51.186;4.450;2022-12-07T17:51:34;6.30;99.90
26053;DHT22;13826;51.186;4.450;2022-12-07T17:54:18;6.30;99.90
26053;DHT22;13826;51.186;4.450;2022-12-07T17:56:44;6.40;99.90